Terminal Aerodrome Forecast
Issued by NWS

Home | Current Version | Previous Version | Text Only | Print | Product List | Glossary On
Versions: 1 2 3 4 5 6 7 8 9 10 11 12 13 14 15 16 17 18
000
FTUS44 KLZK 291740
TAFADF
TAF
KADF 291740Z 2918/3018 23005KT P6SM BKN025
     FM292000 23006KT P6SM VCTS FEW030 SCT050CB SCT100
      TEMPO 2920/2924 -TSRA SCT030 BKN040CB
     FM300000 VRB02KT P6SM FEW050 SCT100
     FM301200 VRB04KT P6SM VCSH SCT035 BKN050=

USA.gov is the U.S. government's official web portal to all federal, state and local government web resources and services.